createdAt,value
2018-04-16T16:28:12.961Z,57.50
2018-04-16T16:31:38.282Z,57.30
2018-04-16T16:34:06.653Z,57.50
2018-04-16T16:36:34.297Z,57.40
2018-04-16T16:39:01.927Z,57.50
2018-04-16T16:41:30.718Z,57.40
2018-04-16T16:43:58.362Z,57.30
2018-04-16T16:46:26.009Z,57.00
2018-04-16T16:48:54.340Z,57.70
2018-04-16T16:51:21.977Z,57.60
2018-04-16T16:53:50.596Z,58.50
2018-04-16T16:56:18.895Z,57.60
2018-04-16T16:58:46.556Z,57.50
2018-04-16T17:01:14.261Z,57.40
2018-04-16T17:03:42.241Z,58.10
2018-04-16T17:06:10.285Z,57.50
2018-04-16T17:08:37.929Z,57.30
2018-04-16T17:11:05.795Z,57.50
2018-04-16T17:13:38.280Z,57.60
2018-04-16T17:18:48.275Z,57.80
2018-04-16T17:21:22.696Z,58.40
2018-04-16T17:24:02.099Z,56.90
2018-04-16T17:26:41.947Z,56.70
2018-04-16T17:29:09.613Z,56.70
2018-04-16T17:31:48.204Z,56.70
2018-04-16T17:34:29.656Z,57.00
2018-04-16T17:37:00.115Z,56.90
2018-04-16T17:39:39.291Z,56.90
2018-04-16T17:42:20.613Z,57.80
2018-04-16T17:44:50.244Z,57.90
2018-04-16T17:47:27.115Z,56.70
2018-04-16T17:50:00.855Z,56.70
2018-04-16T17:52:37.040Z,57.00
2018-04-16T17:55:16.842Z,58.80
2018-04-16T17:57:54.539Z,58.80
2018-04-16T18:00:31.556Z,58.80
2018-04-16T18:03:07.502Z,58.80
2018-04-16T18:05:45.845Z,58.70
2018-04-16T18:08:23.800Z,58.70
2018-04-16T18:11:02.419Z,58.70
2018-04-16T18:13:39.818Z,58.70
2018-04-16T18:16:17.375Z,58.70
2018-04-16T18:18:50.472Z,58.70
2018-04-16T18:21:26.376Z,58.70
2018-04-16T18:24:03.012Z,58.70
2018-04-16T18:26:40.025Z,58.70
2018-04-16T18:29:16.386Z,58.70
2018-04-16T18:31:55.078Z,58.80
2018-04-16T18:34:34.394Z,58.80
2018-04-16T18:37:13.443Z,58.70
2018-04-16T18:39:47.328Z,58.80
2018-04-16T18:42:27.917Z,58.80
2018-04-16T18:45:08.633Z,59.60
2018-04-16T18:47:47.584Z,59.00
2018-04-16T18:50:22.307Z,58.80
2018-04-16T18:53:01.105Z,58.70
2018-04-16T18:55:29.858Z,58.90
2018-04-16T18:58:07.618Z,59.00
2018-04-16T19:00:50.199Z,58.90
2018-04-16T19:03:28.484Z,59.10
2018-04-16T19:06:09.569Z,59.20
2018-04-16T19:08:38.137Z,58.80
2018-04-16T19:13:42.392Z,59.20
2018-04-16T19:16:20.753Z,59.10
2018-04-16T19:18:49.105Z,59.20
2018-04-16T19:21:22.327Z,59.20
2018-04-16T19:23:49.924Z,59.30
2018-04-16T19:26:17.512Z,59.50
2018-04-16T19:28:45.144Z,59.30
2018-04-16T19:31:12.825Z,59.70
2018-04-16T19:33:46.105Z,59.80
2018-04-16T19:36:13.844Z,59.80
2018-04-16T19:38:41.439Z,59.80
2018-04-16T19:41:09.033Z,59.90
2018-04-16T19:43:37.407Z,59.80
2018-04-16T19:46:05.877Z,59.70
2018-04-16T19:48:39.895Z,59.80
2018-04-16T19:51:08.265Z,59.50
2018-04-16T19:53:36.928Z,60.30
2018-04-16T19:56:10.083Z,59.60
2018-04-16T19:58:37.805Z,60.70
2018-04-16T20:01:06.221Z,59.90
2018-04-16T20:03:48.731Z,59.90
2018-04-16T20:06:16.436Z,60.00
2018-04-16T20:08:44.813Z,59.80
2018-04-16T20:11:12.435Z,59.80
2018-04-16T20:13:40.020Z,60.00
2018-04-16T20:16:07.723Z,60.20
2018-04-16T20:18:36.053Z,60.10
2018-04-16T20:21:03.647Z,60.20
2018-04-16T20:23:31.233Z,60.30
2018-04-16T20:25:58.883Z,60.00
2018-04-16T20:28:26.599Z,60.20
2018-04-16T20:30:54.188Z,60.20
2018-04-16T20:33:21.780Z,60.30
2018-04-16T20:35:49.411Z,60.40
2018-04-16T20:38:17.105Z,60.40
2018-04-16T20:40:44.784Z,60.40
2018-04-16T20:43:12.380Z,60.50
2018-04-16T20:45:39.959Z,60.50
2018-04-16T20:48:07.597Z,60.50
2018-04-16T20:50:35.228Z,60.50
2018-04-16T20:53:03.598Z,60.70
2018-04-16T20:55:31.196Z,60.50
2018-04-16T20:57:58.804Z,60.60
2018-04-16T21:00:26.388Z,60.60
2018-04-16T21:02:54.741Z,60.70
2018-04-16T21:05:22.377Z,60.70
2018-04-16T21:12:55.828Z,60.70
2018-04-16T21:15:23.406Z,60.70
2018-04-16T21:17:51.766Z,60.80
2018-04-16T21:20:19.345Z,60.70
2018-04-16T21:22:47.693Z,60.70
2018-04-16T21:25:15.280Z,60.70
2018-04-16T21:27:43.640Z,60.80
2018-04-16T21:30:11.224Z,60.70
2018-04-16T21:32:39.571Z,60.80
2018-04-16T21:35:07.158Z,60.80
2018-04-16T21:37:35.503Z,60.70
2018-04-16T21:40:03.083Z,60.70
2018-04-16T21:42:31.431Z,60.90
2018-04-16T21:44:59.106Z,60.90
2018-04-16T21:47:26.767Z,60.70
2018-04-16T21:49:54.346Z,60.70
2018-04-16T21:52:22.693Z,60.70
2018-04-16T21:54:50.278Z,60.70
2018-04-16T21:57:18.634Z,60.70
2018-04-16T21:59:46.213Z,60.70
2018-04-16T22:02:14.564Z,60.70
2018-04-16T22:04:42.142Z,60.70
2018-04-16T22:07:10.483Z,60.70
2018-04-16T22:09:38.077Z,60.70
2018-04-16T22:12:06.432Z,60.70
2018-04-16T22:14:34.017Z,60.70
2018-04-16T22:17:02.363Z,60.70
2018-04-16T22:19:29.939Z,60.60
2018-04-16T22:21:58.315Z,61.00
2018-04-16T22:24:26.668Z,60.60
2018-04-16T22:26:54.255Z,60.50
2018-04-16T22:29:22.594Z,60.50
2018-04-16T22:31:50.179Z,60.50
2018-04-16T22:34:18.540Z,60.50
2018-04-16T22:36:46.135Z,60.50
2018-04-16T22:39:13.733Z,60.50
2018-04-16T22:41:41.313Z,60.50
2018-04-16T22:44:08.896Z,60.50
2018-04-16T22:46:37.241Z,60.50
2018-04-16T22:49:04.820Z,60.50
2018-04-16T22:51:32.433Z,60.50
2018-04-16T22:54:00.013Z,60.50
2018-04-16T22:56:27.598Z,60.40
2018-04-16T22:58:55.943Z,60.40
2018-04-16T23:01:23.526Z,60.40
2018-04-16T23:03:51.104Z,60.40
2018-04-16T23:06:19.451Z,60.30
2018-04-16T23:08:47.032Z,60.30
2018-04-16T23:11:15.389Z,60.30
2018-04-16T23:13:42.972Z,60.30
2018-04-16T23:16:11.316Z,60.30
2018-04-16T23:18:38.899Z,60.30
2018-04-16T23:21:07.244Z,60.30
2018-04-16T23:23:34.836Z,60.30
2018-04-16T23:26:03.181Z,60.30
2018-04-16T23:28:30.760Z,60.20
2018-04-16T23:30:59.116Z,60.20
2018-04-16T23:33:26.747Z,60.20
2018-04-16T23:35:54.332Z,60.20
2018-04-16T23:38:21.918Z,60.20
2018-04-16T23:40:50.272Z,60.30
2018-04-16T23:43:17.848Z,60.20
2018-04-16T23:45:46.195Z,60.20
2018-04-16T23:48:13.775Z,60.20
2018-04-16T23:50:41.370Z,60.20
2018-04-16T23:53:08.953Z,59.60
2018-04-16T23:55:36.536Z,60.20
2018-04-16T23:58:04.119Z,60.00
